createdAt,value
2018-05-21T00:01:55.602Z,13.90
2018-05-21T00:04:24.102Z,13.80
2018-05-21T00:06:52.568Z,13.70
2018-05-21T00:09:20.983Z,13.70
2018-05-21T00:11:49.497Z,13.70
2018-05-21T00:14:17.966Z,13.80
2018-05-21T00:16:46.478Z,13.70
2018-05-21T00:19:15.190Z,13.50
2018-05-21T00:21:43.652Z,13.90
2018-05-21T00:24:12.123Z,14.00
2018-05-21T00:26:40.644Z,13.90
2018-05-21T00:29:09.137Z,13.60
2018-05-21T00:31:37.772Z,13.60
2018-05-21T00:34:06.363Z,13.60
2018-05-21T00:36:34.893Z,13.50
2018-05-21T00:39:03.417Z,13.60
2018-05-21T00:41:32.093Z,13.50
2018-05-21T00:44:00.604Z,13.20
2018-05-21T00:46:29.856Z,13.70
2018-05-21T00:48:58.335Z,13.70
2018-05-21T00:51:26.798Z,14.00
2018-05-21T00:53:55.273Z,14.10
2018-05-21T00:56:23.762Z,14.20
2018-05-21T00:58:53.172Z,14.10
2018-05-21T01:01:21.692Z,14.10
2018-05-21T01:03:50.919Z,14.10
2018-05-21T01:06:20.191Z,14.00
2018-05-21T01:08:48.722Z,14.00
2018-05-21T01:11:17.202Z,14.10
2018-05-21T01:13:45.695Z,14.10
2018-05-21T01:16:14.179Z,14.30
2018-05-21T01:18:43.431Z,14.00
2018-05-21T01:21:11.910Z,14.00
2018-05-21T01:23:40.380Z,14.00
2018-05-21T01:26:08.882Z,14.00
2018-05-21T01:28:37.642Z,14.00
2018-05-21T01:31:06.124Z,14.00
2018-05-21T01:33:34.589Z,14.00
2018-05-21T01:36:03.142Z,14.00
2018-05-21T01:38:31.793Z,14.00
2018-05-21T01:41:00.305Z,14.20
2018-05-21T01:43:28.793Z,14.10
2018-05-21T01:45:58.135Z,14.10
2018-05-21T01:48:26.647Z,14.00
2018-05-21T01:50:55.162Z,13.80
2018-05-21T01:53:23.800Z,13.70
2018-05-21T01:55:53.077Z,13.50
2018-05-21T01:58:21.922Z,13.40
2018-05-21T02:00:50.499Z,13.20
2018-05-21T02:03:19.004Z,13.00
2018-05-21T02:05:47.489Z,12.90
2018-05-21T02:08:16.045Z,12.80
2018-05-21T02:10:44.460Z,13.00
2018-05-21T02:13:12.951Z,12.90
2018-05-21T02:15:41.442Z,12.90
2018-05-21T02:18:09.916Z,13.00
2018-05-21T02:20:38.350Z,12.90
2018-05-21T02:23:06.917Z,12.90
2018-05-21T02:25:39.078Z,12.90
2018-05-21T02:28:10.314Z,12.90
2018-05-21T02:30:38.768Z,12.80
2018-05-21T02:33:07.220Z,12.80
2018-05-21T02:35:35.697Z,13.10
2018-05-21T02:38:05.039Z,12.70
2018-05-21T02:40:33.543Z,12.70
2018-05-21T02:43:03.166Z,12.70
2018-05-21T02:45:31.636Z,12.80
2018-05-21T02:48:00.075Z,12.60
2018-05-21T02:50:28.537Z,12.70
2018-05-21T02:52:57.054Z,12.70
2018-05-21T02:55:25.567Z,12.80
2018-05-21T02:57:54.967Z,12.70
2018-05-21T03:00:23.439Z,12.50
2018-05-21T03:02:52.953Z,12.50
2018-05-21T03:05:21.490Z,12.40
2018-05-21T03:07:49.942Z,12.40
2018-05-21T03:10:18.416Z,12.50
2018-05-21T03:12:46.866Z,12.30
2018-05-21T03:15:16.173Z,12.30
2018-05-21T03:17:44.695Z,12.30
2018-05-21T03:20:13.181Z,12.20
2018-05-21T03:22:41.674Z,12.10
2018-05-21T03:25:10.137Z,12.20
2018-05-21T03:27:38.638Z,12.20
2018-05-21T03:30:07.178Z,12.10
2018-05-21T03:32:36.543Z,12.40
2018-05-21T03:35:05.786Z,12.20
2018-05-21T03:37:37.223Z,12.20
2018-05-21T03:40:05.745Z,12.00
2018-05-21T03:42:34.163Z,11.70
2018-05-21T03:45:03.536Z,11.60
2018-05-21T03:47:32.049Z,11.70
2018-05-21T03:50:00.526Z,12.00
2018-05-21T03:52:28.999Z,11.70
2018-05-21T03:54:57.490Z,11.60
2018-05-21T03:57:25.949Z,11.70
2018-05-21T04:00:11.890Z,11.90
2018-05-21T04:02:57.873Z,11.60
2018-05-21T04:05:26.402Z,12.00
2018-05-21T04:07:54.881Z,12.00
2018-05-21T04:10:23.389Z,11.70
2018-05-21T04:12:51.874Z,11.60
2018-05-21T04:15:20.348Z,11.60
2018-05-21T04:17:48.894Z,11.50
2018-05-21T04:20:18.175Z,11.50
2018-05-21T04:22:46.656Z,11.40
2018-05-21T04:25:15.140Z,11.40
2018-05-21T04:27:43.598Z,11.50
2018-05-21T04:30:12.098Z,11.80
2018-05-21T04:32:41.682Z,11.80
2018-05-21T04:35:10.221Z,11.90
2018-05-21T04:37:38.700Z,11.90
2018-05-21T04:40:07.993Z,12.00
2018-05-21T04:42:37.268Z,12.00
2018-05-21T04:45:08.197Z,12.00
2018-05-21T04:47:36.655Z,12.10
2018-05-21T04:50:05.103Z,12.00
2018-05-21T04:52:33.614Z,12.20
2018-05-21T04:55:02.102Z,12.10
2018-05-21T04:57:30.600Z,12.10
2018-05-21T05:00:01.334Z,12.10
2018-05-21T05:02:29.834Z,12.20
2018-05-21T05:04:58.369Z,12.20
2018-05-21T05:07:26.859Z,12.30
2018-05-21T05:09:55.458Z,12.40
2018-05-21T05:12:23.987Z,12.40
2018-05-21T05:14:52.522Z,12.50
2018-05-21T05:17:25.728Z,12.60
2018-05-21T05:19:57.339Z,12.70
2018-05-21T05:22:25.881Z,12.80
2018-05-21T05:24:54.352Z,12.80
2018-05-21T05:27:22.805Z,12.80
2018-05-21T05:29:51.273Z,12.80
2018-05-21T05:32:19.820Z,12.90
2018-05-21T05:34:48.322Z,13.00
2018-05-21T05:37:16.772Z,13.00
2018-05-21T05:39:48.625Z,13.20
2018-05-21T05:42:17.110Z,13.20
2018-05-21T05:44:45.617Z,13.20
2018-05-21T05:47:14.116Z,13.20
2018-05-21T05:49:42.610Z,13.30
2018-05-21T05:52:11.167Z,13.30
2018-05-21T05:54:39.852Z,13.40
2018-05-21T05:57:10.422Z,13.50
2018-05-21T05:59:38.912Z,13.50
2018-05-21T06:02:07.377Z,13.60
2018-05-21T06:04:36.638Z,13.70
2018-05-21T06:07:05.133Z,13.70
2018-05-21T06:09:33.572Z,13.80
2018-05-21T06:12:02.093Z,13.80
2018-05-21T06:14:30.552Z,13.90
2018-05-21T06:16:59.019Z,14.00
2018-05-21T06:19:29.802Z,14.10
2018-05-21T06:22:00.627Z,14.10
2018-05-21T06:24:29.055Z,14.10
2018-05-21T06:26:57.605Z,14.20
2018-05-21T06:29:27.189Z,14.20
2018-05-21T06:31:55.795Z,14.40
2018-05-21T06:34:24.446Z,14.40
2018-05-21T06:36:53.869Z,14.50
2018-05-21T06:39:22.352Z,14.60
2018-05-21T06:41:50.767Z,14.60
2018-05-21T06:44:19.298Z,14.70
2018-05-21T06:46:47.790Z,14.80
2018-05-21T06:49:16.241Z,14.90
2018-05-21T06:51:44.774Z,15.00
2018-05-21T06:54:14.062Z,15.10
2018-05-21T06:56:44.065Z,15.10
2018-05-21T06:59:12.576Z,15.30
2018-05-21T07:01:41.070Z,15.30
2018-05-21T07:04:09.601Z,15.40
2018-05-21T07:06:38.069Z,15.60
2018-05-21T07:09:08.240Z,15.70
2018-05-21T07:11:36.672Z,15.70
2018-05-21T07:14:05.179Z,15.70
2018-05-21T07:16:33.753Z,15.90
2018-05-21T07:19:02.285Z,15.90
2018-05-21T07:21:30.845Z,16.00
2018-05-21T07:23:59.308Z,16.10
2018-05-21T07:26:27.804Z,16.20
2018-05-21T07:28:56.239Z,16.30
2018-05-21T07:31:24.756Z,16.50
2018-05-21T07:33:53.196Z,16.50
2018-05-21T07:36:22.450Z,16.70
2018-05-21T07:38:50.947Z,16.70
2018-05-21T07:41:19.450Z,16.80
2018-05-21T07:43:48.032Z,16.80
2018-05-21T07:46:17.267Z,17.00
2018-05-21T07:48:46.505Z,17.10
2018-05-21T07:51:14.978Z,17.10
2018-05-21T07:53:43.412Z,17.30
2018-05-21T07:56:11.856Z,17.40
2018-05-21T07:58:40.296Z,17.50
2018-05-21T08:01:09.572Z,17.80
2018-05-21T08:03:38.028Z,17.70
2018-05-21T08:06:06.497Z,17.80
2018-05-21T08:08:35.028Z,18.00
2018-05-21T08:11:03.492Z,18.20
2018-05-21T08:13:31.989Z,18.30
2018-05-21T08:16:00.424Z,18.50
2018-05-21T08:18:28.954Z,18.80
2018-05-21T08:20:57.386Z,18.90
2018-05-21T08:23:25.889Z,19.10
2018-05-21T08:25:54.330Z,19.20
2018-05-21T08:28:22.799Z,19.40
2018-05-21T08:30:51.311Z,19.50
2018-05-21T08:33:19.735Z,19.70
2018-05-21T08:35:48.229Z,19.90
2018-05-21T08:38:17.520Z,20.30
2018-05-21T08:40:46.764Z,20.40
2018-05-21T08:43:15.250Z,20.40
2018-05-21T08:45:43.665Z,20.60
2018-05-21T08:48:12.891Z,20.90
2018-05-21T08:50:41.382Z,20.90
2018-05-21T08:53:09.841Z,21.00
2018-05-21T08:55:38.299Z,21.00
2018-05-21T08:58:06.795Z,21.20
2018-05-21T09:00:35.230Z,21.30
2018-05-21T09:03:03.742Z,21.30
2018-05-21T09:05:32.377Z,21.40
2018-05-21T09:08:00.886Z,21.50
2018-05-21T09:10:29.375Z,21.50
2018-05-21T09:12:57.893Z,21.60
2018-05-21T09:15:27.627Z,21.90
2018-05-21T09:17:56.111Z,21.90
2018-05-21T09:20:24.642Z,22.00
2018-05-21T09:22:53.107Z,22.10
2018-05-21T09:25:23.842Z,22.20
2018-05-21T09:27:52.515Z,22.20
2018-05-21T09:30:20.973Z,22.40
2018-05-21T09:32:50.227Z,22.60
2018-05-21T09:35:18.692Z,22.60
2018-05-21T09:37:47.229Z,22.60
2018-05-21T09:40:15.765Z,22.40
2018-05-21T09:42:44.224Z,22.60
2018-05-21T09:45:12.763Z,22.70
2018-05-21T09:47:41.690Z,22.80
2018-05-21T09:50:10.168Z,23.00
2018-05-21T09:52:38.658Z,23.10
2018-05-21T09:55:07.148Z,23.20
2018-05-21T09:57:35.806Z,23.20
2018-05-21T10:00:04.349Z,23.20
2018-05-21T10:02:32.909Z,23.20
2018-05-21T10:05:01.683Z,23.50
2018-05-21T10:07:30.616Z,23.70
2018-05-21T10:09:59.161Z,23.70
2018-05-21T10:12:27.650Z,23.60
2018-05-21T10:14:56.169Z,23.50
2018-05-21T10:17:24.695Z,23.60
2018-05-21T10:19:53.192Z,23.70
2018-05-21T10:22:24.134Z,23.70
2018-05-21T10:24:52.838Z,24.00
2018-05-21T10:27:21.273Z,24.10
2018-05-21T10:29:49.753Z,24.20
2018-05-21T10:32:18.236Z,24.60
2018-05-21T10:34:46.724Z,24.50
2018-05-21T10:37:17.197Z,24.50
2018-05-21T10:39:45.782Z,24.60
2018-05-21T10:42:14.311Z,25.40
2018-05-21T10:44:42.964Z,25.40
2018-05-21T10:47:11.480Z,25.50
2018-05-21T10:49:39.972Z,25.80
2018-05-21T10:52:08.518Z,25.90
2018-05-21T10:54:37.039Z,26.20
2018-05-21T10:57:05.601Z,26.60
2018-05-21T10:59:34.133Z,26.70
2018-05-21T11:02:02.623Z,25.90
2018-05-21T11:04:31.111Z,26.00
2018-05-21T11:06:59.703Z,26.60
2018-05-21T11:09:28.162Z,26.40
2018-05-21T11:11:56.720Z,26.70
2018-05-21T11:14:25.253Z,27.00
2018-05-21T11:16:53.765Z,27.40
2018-05-21T11:19:22.534Z,27.40
2018-05-21T11:21:51.828Z,26.90
2018-05-21T11:24:24.097Z,26.80
2018-05-21T11:26:53.134Z,27.20
2018-05-21T11:29:22.401Z,27.80
2018-05-21T11:31:52.645Z,27.90
2018-05-21T11:34:21.966Z,27.60
2018-05-21T11:36:50.412Z,27.60
2018-05-21T11:39:18.945Z,27.80
2018-05-21T11:41:47.410Z,28.10
2018-05-21T11:44:20.191Z,28.30
2018-05-21T11:46:48.742Z,27.90
2018-05-21T11:49:17.267Z,27.60
2018-05-21T11:51:53.981Z,27.40
2018-05-21T11:54:22.533Z,27.70
2018-05-21T11:56:51.029Z,27.50
2018-05-21T11:59:20.260Z,27.10
2018-05-21T12:01:48.831Z,27.10
2018-05-21T12:04:17.378Z,27.20
2018-05-21T12:06:46.631Z,27.10
2018-05-21T12:09:15.093Z,27.10
2018-05-21T12:11:43.548Z,27.20
2018-05-21T12:14:12.007Z,27.20
2018-05-21T12:16:41.291Z,27.30
2018-05-21T12:19:23.495Z,27.30
2018-05-21T12:24:41.513Z,28.20
2018-05-21T12:27:11.270Z,28.90
2018-05-21T12:29:55.358Z,28.40
2018-05-21T12:32:25.838Z,28.00
2018-05-21T12:34:55.085Z,27.50
2018-05-21T12:37:28.868Z,27.50
2018-05-21T12:39:57.537Z,27.50
2018-05-21T12:42:54.200Z,28.00
2018-05-21T12:45:22.698Z,28.00
2018-05-21T12:47:51.195Z,27.90
2018-05-21T12:50:19.646Z,27.90
2018-05-21T12:52:48.138Z,27.90
2018-05-21T12:55:16.665Z,27.70
2018-05-21T12:57:45.513Z,28.00
2018-05-21T13:00:14.042Z,28.50
2018-05-21T13:02:43.318Z,28.50
2018-05-21T13:05:11.769Z,28.50
2018-05-21T13:07:53.443Z,28.40
2018-05-21T13:10:21.915Z,28.20
2018-05-21T13:12:50.446Z,28.20
2018-05-21T13:15:18.912Z,28.10
2018-05-21T13:17:47.414Z,28.70
2018-05-21T13:20:29.695Z,28.30
2018-05-21T13:26:15.307Z,28.20
2018-05-21T13:28:44.642Z,28.20
2018-05-21T13:31:13.944Z,28.10
2018-05-21T13:33:43.213Z,28.00
2018-05-21T13:36:13.364Z,28.10
2018-05-21T13:38:57.425Z,28.60
2018-05-21T13:41:26.138Z,28.70
2018-05-21T13:43:54.632Z,29.30
2018-05-21T13:46:23.125Z,28.90
2018-05-21T13:48:52.483Z,28.80
2018-05-21T13:51:20.984Z,28.70
2018-05-21T13:54:11.536Z,28.90
2018-05-21T13:56:43.274Z,29.20
2018-05-21T13:59:12.574Z,28.90
2018-05-21T14:01:41.080Z,28.90
2018-05-21T14:04:09.568Z,29.10
2018-05-21T14:06:38.077Z,29.10
2018-05-21T14:09:15.221Z,29.60
2018-05-21T14:11:45.127Z,29.60
2018-05-21T14:14:13.682Z,29.60
2018-05-21T14:16:45.993Z,29.60
2018-05-21T14:22:44.549Z,29.60
2018-05-21T14:25:14.184Z,29.50
2018-05-21T14:27:42.655Z,28.50
2018-05-21T14:30:11.131Z,28.40
2018-05-21T14:32:45.251Z,28.60
2018-05-21T14:35:15.097Z,28.60
2018-05-21T14:37:46.710Z,28.60
2018-05-21T14:40:23.393Z,28.70
2018-05-21T14:45:41.044Z,29.00
2018-05-21T14:48:16.295Z,29.30
2018-05-21T14:50:46.160Z,29.30
2018-05-21T14:53:14.607Z,28.80
2018-05-21T14:56:08.319Z,28.60
2018-05-21T14:58:36.791Z,28.80
2018-05-21T15:01:09.775Z,29.20
2018-05-21T15:06:33.943Z,29.10
2018-05-21T15:09:03.526Z,29.20
2018-05-21T15:11:32.921Z,28.60
2018-05-21T15:14:01.410Z,28.60
2018-05-21T15:16:33.422Z,28.40
2018-05-21T15:19:02.669Z,28.10
2018-05-21T15:21:33.766Z,28.10
2018-05-21T15:24:02.384Z,28.00
2018-05-21T15:26:30.859Z,28.20
2018-05-21T15:28:59.351Z,27.90
2018-05-21T15:31:27.841Z,27.70
2018-05-21T15:33:57.051Z,27.60
2018-05-21T15:36:25.518Z,27.50
2018-05-21T15:38:56.243Z,26.90
2018-05-21T15:41:28.213Z,26.90
2018-05-21T15:44:26.086Z,26.80
2018-05-21T15:46:54.636Z,26.60
2018-05-21T15:52:23.586Z,26.60
2018-05-21T15:58:01.578Z,26.30
2018-05-21T16:00:47.817Z,26.30
2018-05-21T16:03:36.189Z,26.30
2018-05-21T16:06:06.230Z,26.20
2018-05-21T16:08:37.215Z,25.80
2018-05-21T16:11:05.869Z,25.60
2018-05-21T16:13:35.321Z,25.50
2018-05-21T16:16:04.049Z,25.60
2018-05-21T16:18:32.558Z,25.40
2018-05-21T16:21:01.301Z,25.40
2018-05-21T16:23:29.885Z,25.30
2018-05-21T16:25:59.348Z,25.30
2018-05-21T16:28:28.656Z,25.30
2018-05-21T16:30:57.233Z,25.30
2018-05-21T16:33:26.515Z,25.10
2018-05-21T16:35:55.241Z,25.10
2018-05-21T16:38:23.900Z,25.10
2018-05-21T16:40:52.405Z,24.90
2018-05-21T16:43:21.291Z,24.80
2018-05-21T16:45:49.821Z,24.90
2018-05-21T16:48:18.596Z,24.90
2018-05-21T16:50:47.257Z,25.00
2018-05-21T16:53:15.849Z,25.00
2018-05-21T16:55:44.412Z,24.90
2018-05-21T16:58:12.937Z,24.70
2018-05-21T17:00:42.096Z,24.80
2018-05-21T17:03:12.567Z,24.70
2018-05-21T17:05:41.179Z,24.70
2018-05-21T17:08:09.762Z,24.50
2018-05-21T17:10:38.861Z,24.40
2018-05-21T17:13:07.616Z,24.60
2018-05-21T17:15:36.346Z,24.40
2018-05-21T17:18:04.959Z,24.40
2018-05-21T17:20:33.681Z,24.40
2018-05-21T17:23:02.310Z,24.30
2018-05-21T17:25:33.788Z,24.20
2018-05-21T17:28:02.512Z,24.10
2018-05-21T17:30:31.168Z,24.00
2018-05-21T17:32:59.719Z,24.10
2018-05-21T17:35:28.398Z,24.00
2018-05-21T17:37:56.954Z,24.00
2018-05-21T17:40:25.612Z,24.00
2018-05-21T17:42:54.980Z,23.80
2018-05-21T17:45:23.566Z,23.90
2018-05-21T17:47:52.206Z,23.90
2018-05-21T17:50:20.920Z,23.80
2018-05-21T17:52:49.492Z,23.80
2018-05-21T17:55:18.165Z,23.70
2018-05-21T17:57:46.749Z,23.60
2018-05-21T18:00:15.392Z,23.60
2018-05-21T18:03:01.421Z,23.50
2018-05-21T18:05:30.061Z,23.40
2018-05-21T18:07:59.632Z,23.40
2018-05-21T18:10:31.642Z,23.40
2018-05-21T18:13:00.215Z,23.30
2018-05-21T18:15:32.703Z,23.30
2018-05-21T18:18:05.149Z,23.20
2018-05-21T18:20:36.678Z,23.20
2018-05-21T18:23:05.274Z,23.00
2018-05-21T18:25:34.097Z,23.00
2018-05-21T18:28:03.097Z,23.00
2018-05-21T18:30:31.867Z,22.90
2018-05-21T18:33:00.765Z,22.90
2018-05-21T18:35:29.425Z,22.80
2018-05-21T18:37:58.067Z,22.70
2018-05-21T18:43:22.095Z,22.50
2018-05-21T18:46:35.822Z,22.50
2018-05-21T18:52:27.844Z,22.30
2018-05-21T18:55:01.856Z,22.20
2018-05-21T18:57:32.866Z,22.20
2018-05-21T19:03:14.476Z,22.00
2018-05-21T19:05:44.894Z,22.00
2018-05-21T19:08:15.248Z,22.00
2018-05-21T19:10:45.265Z,22.00
2018-05-21T19:13:15.691Z,21.90
2018-05-21T19:15:47.115Z,21.80
2018-05-21T19:18:26.180Z,21.80
2018-05-21T19:24:11.035Z,21.50
2018-05-21T19:36:53.841Z,21.30
2018-05-21T19:39:29.269Z,21.30
2018-05-21T19:42:00.195Z,21.30
2018-05-21T19:44:36.677Z,21.20
2018-05-21T19:47:09.925Z,21.10
2018-05-21T19:49:58.344Z,21.00
2018-05-21T19:52:27.237Z,21.00
2018-05-21T19:54:56.812Z,20.90
2018-05-21T19:57:27.191Z,21.00
2018-05-21T20:02:59.768Z,20.80
2018-05-21T20:05:35.410Z,20.80
2018-05-21T20:30:20.880Z,20.10
2018-05-21T20:39:13.000Z,20.10
2018-05-21T20:41:42.849Z,20.00
2018-05-21T20:44:43.379Z,20.00
2018-05-21T21:34:33.549Z,19.60
2018-05-21T21:39:43.722Z,19.60
2018-05-21T21:45:13.740Z,19.40
2018-05-21T21:47:42.750Z,19.40
2018-05-21T21:53:38.908Z,19.30
2018-05-21T21:56:07.709Z,19.30
2018-05-21T21:58:52.676Z,19.40
2018-05-21T22:04:15.671Z,19.40
2018-05-21T22:06:51.710Z,19.30
2018-05-21T22:09:20.829Z,19.30
2018-05-21T22:17:38.236Z,19.10
2018-05-21T22:20:08.081Z,19.00
2018-05-21T22:44:13.804Z,18.90
2018-05-21T22:46:43.984Z,19.10
2018-05-21T22:52:35.354Z,18.80
2018-05-21T23:07:19.443Z,18.50
2018-05-21T23:09:49.597Z,18.50
2018-05-21T23:12:20.389Z,18.60
2018-05-21T23:15:14.812Z,18.50
2018-05-21T23:24:02.084Z,18.50
2018-05-21T23:29:21.347Z,18.50
2018-05-21T23:32:04.737Z,18.40
2018-05-21T23:34:47.274Z,18.40
2018-05-21T23:37:17.014Z,18.30
2018-05-21T23:45:24.199Z,18.30
2018-05-21T23:48:09.985Z,18.20
2018-05-21T23:53:24.399Z,18.00
2018-05-21T23:55:54.009Z,18.60
